createdAt,value
2023-03-21T00:08:03.685Z,3.00
2023-03-21T00:18:25.984Z,3.10
2023-03-21T00:28:47.019Z,3.40
2023-03-21T00:39:08.493Z,3.58
2023-03-21T00:49:33.874Z,2.80
2023-03-21T00:59:58.873Z,3.67
2023-03-21T01:10:20.242Z,3.20
2023-03-21T01:20:42.969Z,3.15
2023-03-21T01:31:05.686Z,2.80
2023-03-21T01:41:42.581Z,2.85
2023-03-21T01:52:37.400Z,2.97
2023-03-21T02:03:20.979Z,3.65
2023-03-21T02:14:05.686Z,3.05
2023-03-21T02:25:01.393Z,3.20
2023-03-21T02:35:44.145Z,2.63
2023-03-21T02:46:49.008Z,3.08
2023-03-21T02:57:17.516Z,3.15
2023-03-21T03:07:54.632Z,3.30
2023-03-21T03:18:34.869Z,2.93
2023-03-21T03:28:59.728Z,2.90
2023-03-21T03:39:21.457Z,3.15
2023-03-21T03:50:01.231Z,3.42
2023-03-21T04:00:25.567Z,3.47
2023-03-21T04:10:47.412Z,3.45
2023-03-21T04:21:13.354Z,3.63
2023-03-21T04:31:36.202Z,3.63
2023-03-21T04:42:05.103Z,3.90
2023-03-21T04:52:27.345Z,4.13
2023-03-21T05:02:48.866Z,3.17
2023-03-21T05:13:10.287Z,4.07
2023-03-21T05:23:31.875Z,3.58
2023-03-21T05:33:53.801Z,3.95
2023-03-21T05:44:16.228Z,3.45
2023-03-21T05:54:38.209Z,3.63
2023-03-21T06:05:00.038Z,3.42
2023-03-21T06:15:21.726Z,4.05
2023-03-21T06:25:50.397Z,3.22
2023-03-21T06:36:11.910Z,3.35
2023-03-21T06:46:33.624Z,3.92
2023-03-21T06:56:56.078Z,3.33
2023-03-21T07:07:26.368Z,3.53
2023-03-21T07:17:47.970Z,3.60
2023-03-21T07:28:09.496Z,4.15
2023-03-21T07:38:31.358Z,3.65
2023-03-21T07:48:53.033Z,2.80
2023-03-21T07:59:14.635Z,3.45
2023-03-21T08:09:37.142Z,3.17
2023-03-21T08:19:58.408Z,3.85
2023-03-21T08:30:22.139Z,3.22
2023-03-21T08:40:43.276Z,3.05
2023-03-21T08:51:04.144Z,2.90
2023-03-21T09:01:25.175Z,2.55
2023-03-21T09:11:46.601Z,2.50
2023-03-21T09:22:11.309Z,2.65
2023-03-21T09:32:33.123Z,2.42
2023-03-21T09:43:27.636Z,2.00
2023-03-21T09:53:50.902Z,2.20
2023-03-21T10:04:13.875Z,2.10
2023-03-21T10:14:41.500Z,1.90
2023-03-21T10:25:02.667Z,1.73
2023-03-21T10:35:23.609Z,1.70
2023-03-21T10:45:48.933Z,1.63
2023-03-21T10:56:11.222Z,1.70
2023-03-21T11:06:34.275Z,1.85
2023-03-21T11:16:55.623Z,1.75
2023-03-21T11:27:16.918Z,1.85
2023-03-21T11:37:39.488Z,1.73
2023-03-21T11:48:02.884Z,1.33
2023-03-21T11:58:36.623Z,1.73
2023-03-21T12:09:01.171Z,1.30
2023-03-21T12:19:51.288Z,1.50
2023-03-21T12:30:32.555Z,1.35
2023-03-21T12:41:21.638Z,1.50
2023-03-21T12:51:47.172Z,1.40
2023-03-21T13:02:32.310Z,1.53
2023-03-21T13:13:13.665Z,1.20
2023-03-21T13:23:39.472Z,1.10
2023-03-21T13:34:00.718Z,1.20
2023-03-21T13:44:44.788Z,1.17
2023-03-21T13:55:17.065Z,1.30
2023-03-21T14:05:39.570Z,1.13
2023-03-21T14:16:06.836Z,1.30
2023-03-21T14:26:34.516Z,1.17
2023-03-21T14:36:58.604Z,1.00
2023-03-21T14:47:26.254Z,1.13
2023-03-21T14:57:48.626Z,1.00
2023-03-21T15:08:14.257Z,1.20
2023-03-21T15:18:37.979Z,1.03
2023-03-21T15:28:59.988Z,1.10
2023-03-21T15:39:21.802Z,1.02
2023-03-21T15:49:43.101Z,1.02
2023-03-21T16:00:12.177Z,1.23
2023-03-21T16:10:37.609Z,1.20
2023-03-21T16:20:59.587Z,1.13
2023-03-21T16:31:23.371Z,1.10
2023-03-21T16:41:45.306Z,1.05
2023-03-21T16:52:06.762Z,1.20
2023-03-21T17:02:28.298Z,1.27
2023-03-21T17:12:49.730Z,1.23
2023-03-21T17:23:11.161Z,1.20
2023-03-21T17:33:32.119Z,1.15
2023-03-21T17:43:53.780Z,1.90
2023-03-21T17:54:15.104Z,1.48
2023-03-21T18:04:36.406Z,1.85
2023-03-21T18:14:57.476Z,1.90
2023-03-21T18:25:18.674Z,1.52
2023-03-21T18:35:40.276Z,1.58
2023-03-21T18:46:02.380Z,1.75
2023-03-21T18:57:13.227Z,1.90
2023-03-21T19:07:05.328Z,1.67
2023-03-21T19:18:21.796Z,1.70
2023-03-21T19:28:09.976Z,1.90
2023-03-21T19:38:31.564Z,1.80
2023-03-21T19:48:56.422Z,1.90
2023-03-21T19:59:18.426Z,2.40
2023-03-21T20:09:51.253Z,2.70
2023-03-21T20:20:17.137Z,2.83
2023-03-21T20:30:39.008Z,2.90
2023-03-21T20:41:04.151Z,2.97
2023-03-21T21:02:10.490Z,3.75
2023-03-21T21:12:31.785Z,3.47
2023-03-21T21:22:59.503Z,4.03
2023-03-21T21:33:22.661Z,4.13
2023-03-21T21:43:43.911Z,4.50
2023-03-21T21:54:06.144Z,4.22
2023-03-21T22:04:28.089Z,4.20
2023-03-21T22:14:49.429Z,4.38
2023-03-21T22:25:13.304Z,4.75
2023-03-21T22:35:35.102Z,4.40
2023-03-21T22:45:56.370Z,4.60
2023-03-21T22:56:17.645Z,4.88
2023-03-21T23:06:39.825Z,3.92
2023-03-21T23:17:02.893Z,3.97
2023-03-21T23:27:24.227Z,3.95
2023-03-21T23:37:52.410Z,4.25
2023-03-21T23:48:13.641Z,3.90
2023-03-21T23:58:35.058Z,3.80
